sensor_id;sensor_type;location;lat;lon;timestamp;P1;durP1;ratioP1;P2;durP2;ratioP2
51006;SDS011;37034;47.886;-3.904;2022-07-29T00:02:17;5.35;;;1.63;;
51006;SDS011;37034;47.886;-3.904;2022-07-29T00:04:43;7.40;;;1.23;;
51006;SDS011;37034;47.886;-3.904;2022-07-29T00:07:08;4.47;;;1.30;;
51006;SDS011;37034;47.886;-3.904;2022-07-29T00:09:34;7.20;;;1.25;;
51006;SDS011;37034;47.886;-3.904;2022-07-29T00:12:00;6.97;;;1.42;;
51006;SDS011;37034;47.886;-3.904;2022-07-29T00:14:26;4.65;;;1.23;;
51006;SDS011;37034;47.886;-3.904;2022-07-29T00:16:52;6.30;;;1.20;;
51006;SDS011;37034;47.886;-3.904;2022-07-29T00:19:18;7.20;;;1.35;;
51006;SDS011;37034;47.886;-3.904;2022-07-29T00:21:43;6.57;;;1.20;;
51006;SDS011;37034;47.886;-3.904;2022-07-29T00:24:09;7.10;;;1.48;;
51006;SDS011;37034;47.886;-3.904;2022-07-29T00:26:35;6.45;;;1.63;;
51006;SDS011;37034;47.886;-3.904;2022-07-29T00:29:01;4.88;;;1.20;;
51006;SDS011;37034;47.886;-3.904;2022-07-29T00:31:28;6.68;;;1.40;;
51006;SDS011;37034;47.886;-3.904;2022-07-29T00:33:54;7.00;;;1.27;;
51006;SDS011;37034;47.886;-3.904;2022-07-29T00:36:20;4.95;;;1.80;;
51006;SDS011;37034;47.886;-3.904;2022-07-29T00:41:13;6.63;;;1.63;;
51006;SDS011;37034;47.886;-3.904;2022-07-29T00:43:39;8.45;;;1.63;;
51006;SDS011;37034;47.886;-3.904;2022-07-29T00:48:31;6.47;;;1.40;;
51006;SDS011;37034;47.886;-3.904;2022-07-29T00:50:57;5.30;;;1.40;;
51006;SDS011;37034;47.886;-3.904;2022-07-29T00:53:24;6.70;;;1.30;;
51006;SDS011;37034;47.886;-3.904;2022-07-29T00:55:51;6.55;;;1.75;;
51006;SDS011;37034;47.886;-3.904;2022-07-29T00:58:20;4.97;;;1.30;;
51006;SDS011;37034;47.886;-3.904;2022-07-29T01:00:46;9.40;;;1.70;;
51006;SDS011;37034;47.886;-3.904;2022-07-29T01:03:12;5.57;;;1.40;;
51006;SDS011;37034;47.886;-3.904;2022-07-29T01:05:37;6.78;;;1.35;;
51006;SDS011;37034;47.886;-3.904;2022-07-29T01:08:04;5.10;;;1.20;;
51006;SDS011;37034;47.886;-3.904;2022-07-29T01:10:30;4.53;;;1.20;;
51006;SDS011;37034;47.886;-3.904;2022-07-29T01:12:57;5.10;;;1.30;;
51006;SDS011;37034;47.886;-3.904;2022-07-29T01:15:24;4.43;;;1.30;;
51006;SDS011;37034;47.886;-3.904;2022-07-29T01:18:11;7.43;;;1.20;;
51006;SDS011;37034;47.886;-3.904;2022-07-29T01:29:32;6.57;;;1.38;;
51006;SDS011;37034;47.886;-3.904;2022-07-29T01:34:47;5.72;;;1.30;;
51006;SDS011;37034;47.886;-3.904;2022-07-29T01:37:18;3.90;;;1.10;;
51006;SDS011;37034;47.886;-3.904;2022-07-29T01:39:54;8.60;;;1.80;;
51006;SDS011;37034;47.886;-3.904;2022-07-29T01:44:54;8.45;;;1.40;;
51006;SDS011;37034;47.886;-3.904;2022-07-29T01:47:24;5.43;;;1.30;;
51006;SDS011;37034;47.886;-3.904;2022-07-29T01:49:58;10.48;;;1.33;;
51006;SDS011;37034;47.886;-3.904;2022-07-29T01:52:28;7.20;;;1.60;;
51006;SDS011;37034;47.886;-3.904;2022-07-29T01:55:14;6.32;;;1.42;;
51006;SDS011;37034;47.886;-3.904;2022-07-29T01:57:42;7.22;;;1.77;;
51006;SDS011;37034;47.886;-3.904;2022-07-29T02:00:10;10.35;;;1.60;;
51006;SDS011;37034;47.886;-3.904;2022-07-29T02:02:37;4.65;;;1.27;;
51006;SDS011;37034;47.886;-3.904;2022-07-29T02:05:06;6.93;;;1.30;;
51006;SDS011;37034;47.886;-3.904;2022-07-29T02:07:35;5.07;;;1.38;;
51006;SDS011;37034;47.886;-3.904;2022-07-29T02:10:03;7.22;;;1.80;;
51006;SDS011;37034;47.886;-3.904;2022-07-29T02:12:29;6.18;;;1.35;;
51006;SDS011;37034;47.886;-3.904;2022-07-29T02:14:59;5.25;;;1.50;;
51006;SDS011;37034;47.886;-3.904;2022-07-29T02:17:27;7.05;;;1.75;;
51006;SDS011;37034;47.886;-3.904;2022-07-29T02:20:01;7.70;;;1.70;;
51006;SDS011;37034;47.886;-3.904;2022-07-29T02:22:29;6.10;;;1.27;;
51006;SDS011;37034;47.886;-3.904;2022-07-29T02:24:59;7.97;;;1.58;;
51006;SDS011;37034;47.886;-3.904;2022-07-29T02:27:26;6.70;;;1.63;;
51006;SDS011;37034;47.886;-3.904;2022-07-29T02:29:54;7.03;;;1.83;;
51006;SDS011;37034;47.886;-3.904;2022-07-29T02:32:22;7.35;;;1.83;;
51006;SDS011;37034;47.886;-3.904;2022-07-29T02:34:50;6.90;;;1.65;;
51006;SDS011;37034;47.886;-3.904;2022-07-29T02:37:17;4.72;;;1.80;;
51006;SDS011;37034;47.886;-3.904;2022-07-29T02:39:43;13.68;;;1.50;;
51006;SDS011;37034;47.886;-3.904;2022-07-29T02:42:12;6.95;;;1.50;;
51006;SDS011;37034;47.886;-3.904;2022-07-29T02:44:40;4.53;;;1.38;;
51006;SDS011;37034;47.886;-3.904;2022-07-29T02:47:14;7.82;;;1.48;;
51006;SDS011;37034;47.886;-3.904;2022-07-29T02:55:22;7.28;;;1.70;;
51006;SDS011;37034;47.886;-3.904;2022-07-29T02:57:52;6.70;;;1.30;;
51006;SDS011;37034;47.886;-3.904;2022-07-29T03:00:27;3.63;;;1.13;;
51006;SDS011;37034;47.886;-3.904;2022-07-29T03:02:55;4.32;;;1.35;;
51006;SDS011;37034;47.886;-3.904;2022-07-29T03:05:23;7.00;;;1.40;;
51006;SDS011;37034;47.886;-3.904;2022-07-29T03:07:57;8.80;;;1.50;;
51006;SDS011;37034;47.886;-3.904;2022-07-29T03:10:26;7.25;;;1.67;;
51006;SDS011;37034;47.886;-3.904;2022-07-29T03:12:52;7.20;;;1.65;;
51006;SDS011;37034;47.886;-3.904;2022-07-29T03:15:20;4.55;;;1.30;;
51006;SDS011;37034;47.886;-3.904;2022-07-29T03:17:46;9.57;;;1.58;;
51006;SDS011;37034;47.886;-3.904;2022-07-29T03:20:12;5.05;;;1.50;;
51006;SDS011;37034;47.886;-3.904;2022-07-29T03:22:39;5.00;;;1.30;;
51006;SDS011;37034;47.886;-3.904;2022-07-29T03:25:09;7.10;;;1.77;;
51006;SDS011;37034;47.886;-3.904;2022-07-29T03:27:36;6.15;;;1.42;;
51006;SDS011;37034;47.886;-3.904;2022-07-29T03:30:02;6.57;;;1.95;;
51006;SDS011;37034;47.886;-3.904;2022-07-29T03:34:53;8.18;;;1.77;;
51006;SDS011;37034;47.886;-3.904;2022-07-29T03:37:19;5.60;;;1.50;;
51006;SDS011;37034;47.886;-3.904;2022-07-29T03:39:45;7.32;;;1.30;;
51006;SDS011;37034;47.886;-3.904;2022-07-29T03:42:13;8.82;;;1.63;;
51006;SDS011;37034;47.886;-3.904;2022-07-29T03:44:41;5.60;;;1.58;;
51006;SDS011;37034;47.886;-3.904;2022-07-29T03:47:10;8.80;;;1.40;;
51006;SDS011;37034;47.886;-3.904;2022-07-29T03:49:40;7.60;;;1.30;;
51006;SDS011;37034;47.886;-3.904;2022-07-29T03:52:06;10.02;;;1.52;;
51006;SDS011;37034;47.886;-3.904;2022-07-29T03:54:33;7.72;;;1.60;;
51006;SDS011;37034;47.886;-3.904;2022-07-29T03:56:59;4.82;;;1.30;;
51006;SDS011;37034;47.886;-3.904;2022-07-29T03:59:26;8.35;;;1.35;;
51006;SDS011;37034;47.886;-3.904;2022-07-29T04:01:52;7.03;;;1.95;;
51006;SDS011;37034;47.886;-3.904;2022-07-29T04:04:20;6.07;;;1.73;;
51006;SDS011;37034;47.886;-3.904;2022-07-29T04:09:12;5.38;;;1.35;;
51006;SDS011;37034;47.886;-3.904;2022-07-29T04:11:39;6.82;;;1.67;;
51006;SDS011;37034;47.886;-3.904;2022-07-29T04:14:05;4.70;;;1.10;;
51006;SDS011;37034;47.886;-3.904;2022-07-29T04:16:31;7.72;;;1.77;;
51006;SDS011;37034;47.886;-3.904;2022-07-29T04:18:58;5.40;;;1.45;;
51006;SDS011;37034;47.886;-3.904;2022-07-29T04:21:23;5.53;;;1.48;;
51006;SDS011;37034;47.886;-3.904;2022-07-29T04:23:49;10.13;;;1.50;;
51006;SDS011;37034;47.886;-3.904;2022-07-29T04:26:15;5.20;;;1.30;;
51006;SDS011;37034;47.886;-3.904;2022-07-29T04:28:42;5.28;;;1.08;;
51006;SDS011;37034;47.886;-3.904;2022-07-29T04:31:08;6.28;;;1.30;;
51006;SDS011;37034;47.886;-3.904;2022-07-29T04:33:34;5.13;;;1.40;;
51006;SDS011;37034;47.886;-3.904;2022-07-29T04:35:59;5.47;;;1.33;;
51006;SDS011;37034;47.886;-3.904;2022-07-29T04:38:25;6.75;;;1.42;;
51006;SDS011;37034;47.886;-3.904;2022-07-29T04:40:51;6.53;;;1.42;;
51006;SDS011;37034;47.886;-3.904;2022-07-29T04:43:16;6.63;;;1.48;;
51006;SDS011;37034;47.886;-3.904;2022-07-29T04:45:42;4.68;;;1.02;;
51006;SDS011;37034;47.886;-3.904;2022-07-29T04:48:08;8.45;;;1.10;;
51006;SDS011;37034;47.886;-3.904;2022-07-29T04:50:34;9.63;;;1.95;;
51006;SDS011;37034;47.886;-3.904;2022-07-29T04:53:02;6.82;;;1.52;;
51006;SDS011;37034;47.886;-3.904;2022-07-29T04:55:28;6.78;;;1.65;;
51006;SDS011;37034;47.886;-3.904;2022-07-29T04:57:53;4.32;;;1.02;;
51006;SDS011;37034;47.886;-3.904;2022-07-29T05:00:19;5.35;;;1.40;;
51006;SDS011;37034;47.886;-3.904;2022-07-29T05:02:45;8.57;;;1.20;;
51006;SDS011;37034;47.886;-3.904;2022-07-29T05:05:10;6.03;;;1.40;;
51006;SDS011;37034;47.886;-3.904;2022-07-29T05:07:36;10.07;;;1.30;;
51006;SDS011;37034;47.886;-3.904;2022-07-29T05:10:02;6.75;;;1.63;;
51006;SDS011;37034;47.886;-3.904;2022-07-29T05:12:28;5.32;;;1.02;;
51006;SDS011;37034;47.886;-3.904;2022-07-29T05:14:54;4.80;;;1.30;;
51006;SDS011;37034;47.886;-3.904;2022-07-29T05:17:20;6.93;;;1.20;;
51006;SDS011;37034;47.886;-3.904;2022-07-29T05:19:45;9.07;;;1.58;;
51006;SDS011;37034;47.886;-3.904;2022-07-29T05:22:11;5.80;;;1.23;;
51006;SDS011;37034;47.886;-3.904;2022-07-29T05:24:37;6.43;;;1.23;;
51006;SDS011;37034;47.886;-3.904;2022-07-29T05:27:02;5.85;;;1.23;;
51006;SDS011;37034;47.886;-3.904;2022-07-29T05:29:28;8.73;;;1.40;;
51006;SDS011;37034;47.886;-3.904;2022-07-29T05:31:54;3.90;;;1.30;;
51006;SDS011;37034;47.886;-3.904;2022-07-29T05:34:20;7.65;;;1.60;;
51006;SDS011;37034;47.886;-3.904;2022-07-29T05:36:45;7.18;;;1.17;;
51006;SDS011;37034;47.886;-3.904;2022-07-29T05:39:11;6.85;;;1.30;;
51006;SDS011;37034;47.886;-3.904;2022-07-29T05:41:38;7.63;;;1.30;;
51006;SDS011;37034;47.886;-3.904;2022-07-29T05:44:04;4.43;;;1.17;;
51006;SDS011;37034;47.886;-3.904;2022-07-29T05:46:29;6.32;;;1.63;;
51006;SDS011;37034;47.886;-3.904;2022-07-29T05:48:55;7.05;;;1.40;;
51006;SDS011;37034;47.886;-3.904;2022-07-29T05:51:21;4.68;;;1.00;;
51006;SDS011;37034;47.886;-3.904;2022-07-29T05:53:47;5.50;;;1.35;;
51006;SDS011;37034;47.886;-3.904;2022-07-29T05:56:12;8.65;;;2.25;;
51006;SDS011;37034;47.886;-3.904;2022-07-29T05:58:38;5.85;;;1.73;;
51006;SDS011;37034;47.886;-3.904;2022-07-29T06:01:04;7.60;;;1.30;;
51006;SDS011;37034;47.886;-3.904;2022-07-29T06:03:29;3.58;;;1.08;;
51006;SDS011;37034;47.886;-3.904;2022-07-29T06:05:55;4.03;;;1.25;;
51006;SDS011;37034;47.886;-3.904;2022-07-29T06:08:21;5.10;;;1.30;;
51006;SDS011;37034;47.886;-3.904;2022-07-29T06:10:46;3.78;;;1.02;;
51006;SDS011;37034;47.886;-3.904;2022-07-29T06:13:12;7.65;;;1.67;;
51006;SDS011;37034;47.886;-3.904;2022-07-29T06:15:40;8.32;;;1.25;;
51006;SDS011;37034;47.886;-3.904;2022-07-29T06:18:07;8.82;;;1.30;;
51006;SDS011;37034;47.886;-3.904;2022-07-29T06:20:34;5.60;;;1.23;;
51006;SDS011;37034;47.886;-3.904;2022-07-29T06:23:00;5.70;;;1.50;;
51006;SDS011;37034;47.886;-3.904;2022-07-29T06:25:26;8.38;;;1.00;;
51006;SDS011;37034;47.886;-3.904;2022-07-29T06:27:55;7.68;;;1.20;;
51006;SDS011;37034;47.886;-3.904;2022-07-29T06:30:21;7.10;;;1.15;;
51006;SDS011;37034;47.886;-3.904;2022-07-29T06:32:47;5.47;;;1.52;;
51006;SDS011;37034;47.886;-3.904;2022-07-29T06:35:13;7.43;;;1.40;;
51006;SDS011;37034;47.886;-3.904;2022-07-29T06:37:38;5.05;;;1.13;;
51006;SDS011;37034;47.886;-3.904;2022-07-29T06:40:04;8.38;;;1.25;;
51006;SDS011;37034;47.886;-3.904;2022-07-29T06:42:48;6.72;;;1.10;;
51006;SDS011;37034;47.886;-3.904;2022-07-29T06:45:14;4.68;;;1.10;;
51006;SDS011;37034;47.886;-3.904;2022-07-29T06:47:41;5.53;;;1.30;;
51006;SDS011;37034;47.886;-3.904;2022-07-29T06:50:06;8.23;;;1.30;;
51006;SDS011;37034;47.886;-3.904;2022-07-29T06:52:36;2.25;;;0.80;;
51006;SDS011;37034;47.886;-3.904;2022-07-29T06:57:28;8.45;;;1.40;;
51006;SDS011;37034;47.886;-3.904;2022-07-29T06:59:55;6.00;;;1.40;;
51006;SDS011;37034;47.886;-3.904;2022-07-29T07:02:22;5.10;;;1.02;;
51006;SDS011;37034;47.886;-3.904;2022-07-29T07:04:47;3.22;;;1.30;;
51006;SDS011;37034;47.886;-3.904;2022-07-29T07:07:13;6.03;;;1.27;;
51006;SDS011;37034;47.886;-3.904;2022-07-29T07:09:39;5.93;;;1.38;;
51006;SDS011;37034;47.886;-3.904;2022-07-29T07:12:04;3.58;;;1.17;;
51006;SDS011;37034;47.886;-3.904;2022-07-29T07:14:30;5.93;;;1.13;;
51006;SDS011;37034;47.886;-3.904;2022-07-29T07:16:56;13.52;;;1.48;;
51006;SDS011;37034;47.886;-3.904;2022-07-29T07:19:22;5.22;;;1.40;;
51006;SDS011;37034;47.886;-3.904;2022-07-29T07:21:47;8.68;;;1.30;;
51006;SDS011;37034;47.886;-3.904;2022-07-29T07:24:13;6.53;;;1.38;;
51006;SDS011;37034;47.886;-3.904;2022-07-29T07:26:39;5.93;;;1.35;;
51006;SDS011;37034;47.886;-3.904;2022-07-29T07:29:05;4.13;;;1.20;;
51006;SDS011;37034;47.886;-3.904;2022-07-29T07:31:30;4.63;;;1.15;;
51006;SDS011;37034;47.886;-3.904;2022-07-29T07:33:56;5.25;;;1.20;;
51006;SDS011;37034;47.886;-3.904;2022-07-29T07:36:22;4.25;;;1.17;;
51006;SDS011;37034;47.886;-3.904;2022-07-29T07:38:48;5.63;;;1.20;;
51006;SDS011;37034;47.886;-3.904;2022-07-29T07:41:14;6.68;;;1.25;;
51006;SDS011;37034;47.886;-3.904;2022-07-29T07:43:40;6.93;;;1.48;;
51006;SDS011;37034;47.886;-3.904;2022-07-29T07:46:06;5.10;;;1.27;;
51006;SDS011;37034;47.886;-3.904;2022-07-29T07:48:31;4.95;;;1.10;;
51006;SDS011;37034;47.886;-3.904;2022-07-29T07:50:59;7.22;;;1.00;;
51006;SDS011;37034;47.886;-3.904;2022-07-29T07:53:25;4.45;;;1.20;;
51006;SDS011;37034;47.886;-3.904;2022-07-29T07:55:51;7.88;;;1.50;;
51006;SDS011;37034;47.886;-3.904;2022-07-29T07:58:17;6.47;;;1.20;;
51006;SDS011;37034;47.886;-3.904;2022-07-29T08:00:42;5.97;;;1.73;;
51006;SDS011;37034;47.886;-3.904;2022-07-29T08:03:08;5.72;;;1.70;;
51006;SDS011;37034;47.886;-3.904;2022-07-29T08:05:37;5.28;;;1.70;;
51006;SDS011;37034;47.886;-3.904;2022-07-29T08:08:03;7.35;;;1.40;;
51006;SDS011;37034;47.886;-3.904;2022-07-29T08:10:29;4.03;;;1.30;;
51006;SDS011;37034;47.886;-3.904;2022-07-29T08:13:13;5.68;;;1.20;;
51006;SDS011;37034;47.886;-3.904;2022-07-29T08:15:39;4.75;;;1.20;;
51006;SDS011;37034;47.886;-3.904;2022-07-29T08:18:06;6.43;;;1.30;;
51006;SDS011;37034;47.886;-3.904;2022-07-29T08:20:32;5.13;;;1.27;;
51006;SDS011;37034;47.886;-3.904;2022-07-29T08:23:00;4.18;;;1.38;;
51006;SDS011;37034;47.886;-3.904;2022-07-29T08:25:26;10.48;;;2.15;;
51006;SDS011;37034;47.886;-3.904;2022-07-29T08:27:52;6.68;;;1.55;;
51006;SDS011;37034;47.886;-3.904;2022-07-29T08:30:18;7.03;;;1.70;;
51006;SDS011;37034;47.886;-3.904;2022-07-29T08:32:43;8.90;;;1.80;;
51006;SDS011;37034;47.886;-3.904;2022-07-29T08:35:09;5.68;;;1.85;;
51006;SDS011;37034;47.886;-3.904;2022-07-29T08:37:35;7.00;;;1.90;;
51006;SDS011;37034;47.886;-3.904;2022-07-29T08:40:01;5.10;;;1.20;;
51006;SDS011;37034;47.886;-3.904;2022-07-29T08:44:53;6.20;;;1.40;;
51006;SDS011;37034;47.886;-3.904;2022-07-29T08:47:19;5.53;;;1.50;;
51006;SDS011;37034;47.886;-3.904;2022-07-29T08:49:45;6.03;;;1.45;;
51006;SDS011;37034;47.886;-3.904;2022-07-29T08:52:13;9.45;;;1.70;;
51006;SDS011;37034;47.886;-3.904;2022-07-29T08:54:40;4.45;;;1.40;;
51006;SDS011;37034;47.886;-3.904;2022-07-29T08:57:09;6.63;;;1.17;;
51006;SDS011;37034;47.886;-3.904;2022-07-29T08:59:37;5.90;;;1.83;;
51006;SDS011;37034;47.886;-3.904;2022-07-29T09:02:07;8.25;;;1.70;;
51006;SDS011;37034;47.886;-3.904;2022-07-29T09:04:46;6.30;;;1.70;;
51006;SDS011;37034;47.886;-3.904;2022-07-29T09:07:15;12.77;;;1.58;;
51006;SDS011;37034;47.886;-3.904;2022-07-29T09:09:42;7.78;;;1.70;;
51006;SDS011;37034;47.886;-3.904;2022-07-29T09:12:11;8.73;;;1.52;;
51006;SDS011;37034;47.886;-3.904;2022-07-29T09:14:40;7.15;;;1.63;;
51006;SDS011;37034;47.886;-3.904;2022-07-29T09:17:06;8.82;;;1.38;;
51006;SDS011;37034;47.886;-3.904;2022-07-29T09:19:33;4.93;;;1.50;;
51006;SDS011;37034;47.886;-3.904;2022-07-29T09:22:01;4.90;;;1.42;;
51006;SDS011;37034;47.886;-3.904;2022-07-29T09:24:38;8.82;;;1.60;;
51006;SDS011;37034;47.886;-3.904;2022-07-29T09:27:09;5.45;;;1.65;;
51006;SDS011;37034;47.886;-3.904;2022-07-29T09:29:46;9.75;;;1.75;;
51006;SDS011;37034;47.886;-3.904;2022-07-29T09:32:12;3.55;;;1.30;;
51006;SDS011;37034;47.886;-3.904;2022-07-29T09:34:38;6.60;;;1.95;;
51006;SDS011;37034;47.886;-3.904;2022-07-29T09:37:04;3.42;;;1.30;;
51006;SDS011;37034;47.886;-3.904;2022-07-29T09:42:10;5.97;;;1.65;;
51006;SDS011;37034;47.886;-3.904;2022-07-29T09:44:49;5.43;;;1.73;;
51006;SDS011;37034;47.886;-3.904;2022-07-29T09:47:16;8.95;;;1.65;;
51006;SDS011;37034;47.886;-3.904;2022-07-29T09:49:58;10.35;;;1.80;;
51006;SDS011;37034;47.886;-3.904;2022-07-29T09:52:28;5.82;;;1.50;;
51006;SDS011;37034;47.886;-3.904;2022-07-29T09:55:07;4.72;;;1.40;;
51006;SDS011;37034;47.886;-3.904;2022-07-29T09:57:34;10.98;;;1.80;;
51006;SDS011;37034;47.886;-3.904;2022-07-29T10:02:31;8.77;;;1.80;;
51006;SDS011;37034;47.886;-3.904;2022-07-29T10:04:59;4.90;;;1.73;;
51006;SDS011;37034;47.886;-3.904;2022-07-29T10:07:26;4.97;;;1.50;;
51006;SDS011;37034;47.886;-3.904;2022-07-29T10:10:07;5.35;;;1.67;;
51006;SDS011;37034;47.886;-3.904;2022-07-29T10:14:58;6.80;;;1.60;;
51006;SDS011;37034;47.886;-3.904;2022-07-29T10:17:27;5.72;;;1.65;;
51006;SDS011;37034;47.886;-3.904;2022-07-29T10:19:53;10.25;;;1.70;;
51006;SDS011;37034;47.886;-3.904;2022-07-29T10:22:20;4.93;;;1.60;;
51006;SDS011;37034;47.886;-3.904;2022-07-29T10:24:46;8.25;;;2.17;;
51006;SDS011;37034;47.886;-3.904;2022-07-29T10:27:13;6.60;;;1.83;;
51006;SDS011;37034;47.886;-3.904;2022-07-29T10:32:16;5.65;;;1.52;;
51006;SDS011;37034;47.886;-3.904;2022-07-29T10:40:57;3.90;;;1.70;;
51006;SDS011;37034;47.886;-3.904;2022-07-29T10:43:46;6.80;;;1.90;;
51006;SDS011;37034;47.886;-3.904;2022-07-29T10:46:13;6.25;;;1.50;;
51006;SDS011;37034;47.886;-3.904;2022-07-29T10:49:03;7.95;;;1.83;;
51006;SDS011;37034;47.886;-3.904;2022-07-29T10:51:54;9.13;;;1.90;;
51006;SDS011;37034;47.886;-3.904;2022-07-29T10:54:42;5.47;;;1.90;;
51006;SDS011;37034;47.886;-3.904;2022-07-29T11:07:25;19.85;;;2.50;;
51006;SDS011;37034;47.886;-3.904;2022-07-29T11:15:15;9.45;;;2.20;;
51006;SDS011;37034;47.886;-3.904;2022-07-29T11:31:41;6.50;;;1.83;;
51006;SDS011;37034;47.886;-3.904;2022-07-29T11:34:22;8.32;;;1.98;;
51006;SDS011;37034;47.886;-3.904;2022-07-29T11:44:53;3.50;;;1.60;;
51006;SDS011;37034;47.886;-3.904;2022-07-29T11:47:35;6.90;;;2.08;;
51006;SDS011;37034;47.886;-3.904;2022-07-29T11:50:11;15.45;;;2.22;;
51006;SDS011;37034;47.886;-3.904;2022-07-29T11:55:10;5.15;;;1.80;;
51006;SDS011;37034;47.886;-3.904;2022-07-29T11:57:59;8.35;;;2.20;;
51006;SDS011;37034;47.886;-3.904;2022-07-29T12:03:00;11.45;;;2.10;;
51006;SDS011;37034;47.886;-3.904;2022-07-29T12:05:41;6.25;;;1.70;;
51006;SDS011;37034;47.886;-3.904;2022-07-29T12:08:11;5.18;;;2.00;;
51006;SDS011;37034;47.886;-3.904;2022-07-29T12:10:44;5.32;;;2.13;;
51006;SDS011;37034;47.886;-3.904;2022-07-29T12:13:12;6.07;;;2.17;;
51006;SDS011;37034;47.886;-3.904;2022-07-29T12:15:39;5.15;;;2.05;;
51006;SDS011;37034;47.886;-3.904;2022-07-29T12:18:12;5.72;;;1.88;;
51006;SDS011;37034;47.886;-3.904;2022-07-29T12:20:48;7.50;;;2.00;;
51006;SDS011;37034;47.886;-3.904;2022-07-29T12:23:20;5.00;;;2.38;;
51006;SDS011;37034;47.886;-3.904;2022-07-29T12:28:13;6.95;;;2.15;;
51006;SDS011;37034;47.886;-3.904;2022-07-29T12:30:45;10.43;;;1.90;;
51006;SDS011;37034;47.886;-3.904;2022-07-29T12:33:14;7.90;;;2.03;;
51006;SDS011;37034;47.886;-3.904;2022-07-29T12:35:55;6.13;;;1.95;;
51006;SDS011;37034;47.886;-3.904;2022-07-29T12:38:25;11.65;;;1.95;;
51006;SDS011;37034;47.886;-3.904;2022-07-29T12:40:52;11.65;;;2.20;;
51006;SDS011;37034;47.886;-3.904;2022-07-29T12:43:22;8.05;;;2.10;;
51006;SDS011;37034;47.886;-3.904;2022-07-29T12:45:49;9.77;;;2.75;;
51006;SDS011;37034;47.886;-3.904;2022-07-29T12:48:17;11.20;;;2.70;;
51006;SDS011;37034;47.886;-3.904;2022-07-29T12:51:02;9.95;;;1.90;;
51006;SDS011;37034;47.886;-3.904;2022-07-29T12:53:29;10.00;;;2.20;;
51006;SDS011;37034;47.886;-3.904;2022-07-29T12:55:56;6.53;;;2.00;;
51006;SDS011;37034;47.886;-3.904;2022-07-29T12:58:27;7.13;;;1.85;;
51006;SDS011;37034;47.886;-3.904;2022-07-29T13:01:00;8.80;;;2.15;;
51006;SDS011;37034;47.886;-3.904;2022-07-29T13:03:55;9.80;;;2.45;;
51006;SDS011;37034;47.886;-3.904;2022-07-29T13:14:07;8.13;;;2.35;;
51006;SDS011;37034;47.886;-3.904;2022-07-29T13:16:40;5.85;;;2.00;;
51006;SDS011;37034;47.886;-3.904;2022-07-29T13:19:35;10.68;;;1.80;;
51006;SDS011;37034;47.886;-3.904;2022-07-29T13:22:11;9.95;;;2.28;;
51006;SDS011;37034;47.886;-3.904;2022-07-29T13:27:20;5.25;;;1.80;;
51006;SDS011;37034;47.886;-3.904;2022-07-29T13:30:10;7.20;;;1.67;;
51006;SDS011;37034;47.886;-3.904;2022-07-29T13:32:36;8.45;;;1.70;;
51006;SDS011;37034;47.886;-3.904;2022-07-29T13:35:04;6.60;;;2.05;;
51006;SDS011;37034;47.886;-3.904;2022-07-29T13:37:31;5.53;;;1.88;;
51006;SDS011;37034;47.886;-3.904;2022-07-29T13:39:59;9.23;;;1.90;;
51006;SDS011;37034;47.886;-3.904;2022-07-29T13:42:29;8.68;;;1.75;;
51006;SDS011;37034;47.886;-3.904;2022-07-29T13:44:55;5.60;;;1.88;;
51006;SDS011;37034;47.886;-3.904;2022-07-29T13:49:47;7.63;;;2.13;;
51006;SDS011;37034;47.886;-3.904;2022-07-29T13:52:13;10.73;;;2.10;;
51006;SDS011;37034;47.886;-3.904;2022-07-29T13:57:04;5.95;;;1.98;;
51006;SDS011;37034;47.886;-3.904;2022-07-29T14:01:55;9.68;;;2.33;;
51006;SDS011;37034;47.886;-3.904;2022-07-29T14:04:21;10.55;;;2.17;;
51006;SDS011;37034;47.886;-3.904;2022-07-29T14:06:48;7.18;;;2.10;;
51006;SDS011;37034;47.886;-3.904;2022-07-29T14:09:14;11.88;;;2.25;;
51006;SDS011;37034;47.886;-3.904;2022-07-29T14:14:05;10.75;;;1.95;;
51006;SDS011;37034;47.886;-3.904;2022-07-29T14:18:57;6.45;;;2.17;;
51006;SDS011;37034;47.886;-3.904;2022-07-29T14:23:48;7.43;;;2.05;;
51006;SDS011;37034;47.886;-3.904;2022-07-29T14:28:39;15.68;;;2.20;;
51006;SDS011;37034;47.886;-3.904;2022-07-29T14:33:31;9.32;;;2.63;;
51006;SDS011;37034;47.886;-3.904;2022-07-29T14:38:22;7.43;;;2.20;;
51006;SDS011;37034;47.886;-3.904;2022-07-29T14:43:13;9.63;;;1.90;;
51006;SDS011;37034;47.886;-3.904;2022-07-29T14:48:05;7.40;;;2.08;;
51006;SDS011;37034;47.886;-3.904;2022-07-29T14:50:31;10.52;;;2.50;;
51006;SDS011;37034;47.886;-3.904;2022-07-29T14:55:23;8.05;;;2.10;;
51006;SDS011;37034;47.886;-3.904;2022-07-29T15:00:15;11.32;;;2.67;;
51006;SDS011;37034;47.886;-3.904;2022-07-29T15:02:41;13.25;;;2.20;;
51006;SDS011;37034;47.886;-3.904;2022-07-29T15:07:33;6.63;;;2.20;;
51006;SDS011;37034;47.886;-3.904;2022-07-29T15:12:24;10.70;;;2.22;;
51006;SDS011;37034;47.886;-3.904;2022-07-29T15:17:15;8.18;;;2.20;;
51006;SDS011;37034;47.886;-3.904;2022-07-29T15:22:07;5.93;;;2.28;;
51006;SDS011;37034;47.886;-3.904;2022-07-29T15:26:58;10.38;;;2.65;;
51006;SDS011;37034;47.886;-3.904;2022-07-29T15:31:49;11.10;;;2.20;;
51006;SDS011;37034;47.886;-3.904;2022-07-29T15:36:40;7.75;;;2.17;;
51006;SDS011;37034;47.886;-3.904;2022-07-29T15:41:32;5.63;;;2.28;;
51006;SDS011;37034;47.886;-3.904;2022-07-29T15:43:58;6.78;;;2.05;;
51006;SDS011;37034;47.886;-3.904;2022-07-29T15:49:08;7.78;;;1.95;;
51006;SDS011;37034;47.886;-3.904;2022-07-29T15:54:00;12.77;;;2.03;;
51006;SDS011;37034;47.886;-3.904;2022-07-29T15:56:27;5.15;;;2.08;;
51006;SDS011;37034;47.886;-3.904;2022-07-29T15:58:53;8.50;;;1.98;;
51006;SDS011;37034;47.886;-3.904;2022-07-29T16:03:46;6.82;;;1.98;;
51006;SDS011;37034;47.886;-3.904;2022-07-29T16:08:37;6.90;;;1.70;;
51006;SDS011;37034;47.886;-3.904;2022-07-29T16:13:28;7.28;;;1.80;;
51006;SDS011;37034;47.886;-3.904;2022-07-29T16:18:19;5.35;;;2.00;;
51006;SDS011;37034;47.886;-3.904;2022-07-29T16:23:11;6.97;;;2.08;;
51006;SDS011;37034;47.886;-3.904;2022-07-29T16:28:02;10.52;;;2.20;;
51006;SDS011;37034;47.886;-3.904;2022-07-29T16:30:28;8.00;;;2.08;;
51006;SDS011;37034;47.886;-3.904;2022-07-29T16:35:20;11.95;;;2.47;;
51006;SDS011;37034;47.886;-3.904;2022-07-29T16:40:11;6.07;;;2.10;;
51006;SDS011;37034;47.886;-3.904;2022-07-29T16:45:03;4.28;;;1.92;;
51006;SDS011;37034;47.886;-3.904;2022-07-29T16:47:29;9.18;;;2.30;;
51006;SDS011;37034;47.886;-3.904;2022-07-29T16:52:20;8.80;;;2.00;;
51006;SDS011;37034;47.886;-3.904;2022-07-29T16:57:11;5.47;;;2.03;;
51006;SDS011;37034;47.886;-3.904;2022-07-29T17:02:03;11.20;;;2.40;;
51006;SDS011;37034;47.886;-3.904;2022-07-29T17:06:55;5.77;;;2.10;;
51006;SDS011;37034;47.886;-3.904;2022-07-29T17:09:21;4.03;;;1.70;;
51006;SDS011;37034;47.886;-3.904;2022-07-29T17:11:47;7.80;;;1.92;;
51006;SDS011;37034;47.886;-3.904;2022-07-29T17:14:17;4.47;;;1.70;;
51006;SDS011;37034;47.886;-3.904;2022-07-29T17:16:43;8.55;;;2.28;;
51006;SDS011;37034;47.886;-3.904;2022-07-29T17:21:35;5.80;;;1.90;;
51006;SDS011;37034;47.886;-3.904;2022-07-29T17:26:26;7.50;;;2.05;;
51006;SDS011;37034;47.886;-3.904;2022-07-29T17:31:17;4.00;;;1.70;;
51006;SDS011;37034;47.886;-3.904;2022-07-29T17:36:09;4.97;;;1.85;;
51006;SDS011;37034;47.886;-3.904;2022-07-29T17:38:54;8.60;;;1.75;;
51006;SDS011;37034;47.886;-3.904;2022-07-29T17:41:28;3.40;;;1.70;;
51006;SDS011;37034;47.886;-3.904;2022-07-29T17:46:20;5.47;;;1.83;;
51006;SDS011;37034;47.886;-3.904;2022-07-29T17:48:48;8.50;;;2.70;;
51006;SDS011;37034;47.886;-3.904;2022-07-29T17:51:14;5.50;;;1.90;;
51006;SDS011;37034;47.886;-3.904;2022-07-29T17:56:05;5.35;;;1.80;;
51006;SDS011;37034;47.886;-3.904;2022-07-29T18:00:57;7.80;;;2.30;;
51006;SDS011;37034;47.886;-3.904;2022-07-29T18:05:49;6.10;;;1.75;;
51006;SDS011;37034;47.886;-3.904;2022-07-29T18:08:15;5.35;;;2.08;;
51006;SDS011;37034;47.886;-3.904;2022-07-29T18:13:07;4.57;;;1.98;;
51006;SDS011;37034;47.886;-3.904;2022-07-29T18:17:58;5.35;;;1.95;;